Bahia Uno — ECFT — position and weather

sailwx.info

Track history (hours):
 
Tides and Currents Weather Stations Pressure Air Temp Water Temp Dewpoint Dewpoint Depression Visibility Wind Speed Wind Dir Waves Ship Positions

Bahia Uno

Last reported at 2018-Apr-20 14:40 UTC. Time now 2018-Apr-20 16:45 UTC.
Position N 41°21' E 002°10'.

Length 70 m; draft 6.5 m.

Type: Ship. MMSI: 224127820.

Date/timePositionNaut miles runAvg speedWind from/ knotsBaromVisibWave heightAir tempDewpointWater temp
2018-Apr-20 14:40N 41°21' E 002°10'0 0.2
2018-Apr-20 14:30N 41°21' E 002°10'0 0.0
2018-Apr-20 14:00N 41°21' E 002°10'0 0.0
2018-Apr-20 13:30N 41°21' E 002°10'0 0.0
2018-Apr-20 13:00N 41°21' E 002°10'0 0.0
2018-Apr-20 12:17N 41°21' E 002°10'0 0.1
2018-Apr-20 11:59N 41°21' E 002°10'0 0.0
2018-Apr-20 11:30N 41°21' E 002°10'0 0.3
2018-Apr-20 11:00N 41°21' E 002°10'0 0.8
2018-Apr-20 10:28N 41°21' E 002°10'0 0.0
2018-Apr-20 09:52N 41°21' E 002°10'  
2018-Apr-16 13:24N 41°21' E 002°10'0 0.0
2018-Apr-16 13:00N 41°21' E 002°10'0 0.0
2018-Apr-16 12:27N 41°21' E 002°10'0 0.0
2018-Apr-16 11:59N 41°21' E 002°10'0 0.0
2018-Apr-16 11:28N 41°21' E 002°10'0 0.0
2018-Apr-16 11:00N 41°21' E 002°10'0 0.0
2018-Apr-16 10:30N 41°21' E 002°10'0 0.0
2018-Apr-16 10:00N 41°21' E 002°10'0 0.0
2018-Apr-16 09:30N 41°21' E 002°10'0 0.0
2018-Apr-16 09:00N 41°21' E 002°10'0 0.0
2018-Apr-16 08:28N 41°21' E 002°10'0 0.0
2018-Apr-16 08:00N 41°21' E 002°10'0 0.0
2018-Apr-16 07:30N 41°21' E 002°10'0 0.0
2018-Apr-16 07:00N 41°21' E 002°10'0 0.0
2018-Apr-16 06:30N 41°21' E 002°10'0 0.0
2018-Apr-16 06:00N 41°21' E 002°10'0 0.0
2018-Apr-16 05:30N 41°21' E 002°10'0 0.0
2018-Apr-16 05:00N 41°21' E 002°10'0 0.0
2018-Apr-16 04:30N 41°21' E 002°10'0 0.0
2018-Apr-16 04:01N 41°21' E 002°10'0 0.0
2018-Apr-16 03:30N 41°21' E 002°10'0 0.0
2018-Apr-16 03:00N 41°21' E 002°10'0 0.0
2018-Apr-16 02:30N 41°21' E 002°10'0 0.0
2018-Apr-16 02:01N 41°21' E 002°10'0 0.0
2018-Apr-16 01:31N 41°21' E 002°10'0 0.0
2018-Apr-16 01:00N 41°21' E 002°10'0 0.0
2018-Apr-16 00:30N 41°21' E 002°10'0 0.0
2018-Apr-16 00:00N 41°21' E 002°10'0 0.0
2018-Apr-15 23:30N 41°21' E 002°10'0 0.0
2018-Apr-15 23:00N 41°21' E 002°10'0 0.0
2018-Apr-15 22:30N 41°21' E 002°10'0 0.0
2018-Apr-15 22:00N 41°21' E 002°10'0 0.0
2018-Apr-15 21:30N 41°21' E 002°10'0 0.0
2018-Apr-15 21:00N 41°21' E 002°10'0 0.0
2018-Apr-15 20:31N 41°21' E 002°10'0 0.0
2018-Apr-15 20:00N 41°21' E 002°10'0 0.0
2018-Apr-15 19:31N 41°21' E 002°10'0 0.0
2018-Apr-15 19:01N 41°21' E 002°10'0 0.0
2018-Apr-15 18:30N 41°21' E 002°10'0 0.0
2018-Apr-15 18:01N 41°21' E 002°10'0 0.0
2018-Apr-15 17:30N 41°21' E 002°10'0 0.0
2018-Apr-15 17:00N 41°21' E 002°10'0 0.0
2018-Apr-15 16:30N 41°21' E 002°10'0 0.0
2018-Apr-15 16:00N 41°21' E 002°10'0 0.0
2018-Apr-15 15:29N 41°21' E 002°10'0 0.0
2018-Apr-15 14:55N 41°21' E 002°10'0 0.0
2018-Apr-15 14:30N 41°21' E 002°10'0 0.0
2018-Apr-15 14:01N 41°21' E 002°10'0 0.0
2018-Apr-15 13:30N 41°21' E 002°10'0 0.0
2018-Apr-15 12:59N 41°21' E 002°10'0 0.0
2018-Apr-15 12:27N 41°21' E 002°10'0 0.0
2018-Apr-15 12:00N 41°21' E 002°10'0 0.0
2018-Apr-15 11:30N 41°21' E 002°10'0 0.0
2018-Apr-15 11:00N 41°21' E 002°10'0 0.0
2018-Apr-15 10:30N 41°21' E 002°10'0 0.0
2018-Apr-15 10:00N 41°21' E 002°10'0 0.0
2018-Apr-15 09:30N 41°21' E 002°10'0 0.0
2018-Apr-15 09:00N 41°21' E 002°10'0 0.0
2018-Apr-15 08:30N 41°21' E 002°10'0 0.0
2018-Apr-15 08:00N 41°21' E 002°10'0 0.0
2018-Apr-15 07:30N 41°21' E 002°10'0 0.0
2018-Apr-15 07:00N 41°21' E 002°10'0 0.0
2018-Apr-15 06:31N 41°21' E 002°10'0 0.0
2018-Apr-15 06:00N 41°21' E 002°10'10 2.5
2018-Apr-15 01:57N 41°11' E 002°10'2 4.6
2018-Apr-15 01:31N 41°09' E 002°08'4 4.6
2018-Apr-15 00:37N 41°05' E 002°05'1 4.7
2018-Apr-15 00:21N 41°04' E 002°05'2 4.6
2018-Apr-14 23:59N 41°03' E 002°04'2 4.5
2018-Apr-14 23:29N 41°01' E 002°02'200 5.5
2018-Apr-13 11:22N 38°06' W 000°04'2 5.6
2018-Apr-13 10:59N 38°04' W 000°05'20 5.7
2018-Apr-13 07:27N 37°47' W 000°19'3 6.2
2018-Apr-13 07:00N 37°44' W 000°21'3 6.3
2018-Apr-13 06:30N 37°42' W 000°23'4 6.0
2018-Apr-13 05:54N 37°39' W 000°26'2 5.9
2018-Apr-13 05:30N 37°37' W 000°27'3 5.7
2018-Apr-13 05:00N 37°35' W 000°30'3 5.8
2018-Apr-13 04:30N 37°32' W 000°32'3 5.9
2018-Apr-13 04:00N 37°30' W 000°35'5 6.6
2018-Apr-13 03:19N 37°27' W 000°39'3 6.7
2018-Apr-13 02:53N 37°26' W 000°42'2 6.3
2018-Apr-13 02:30N 37°24' W 000°44'3 6.7
2018-Apr-13 02:00N 37°22' W 000°47'5 6.6
2018-Apr-13 01:20N 37°19' W 000°52'  
Track history (hours):
 
Tides and Currents Weather Stations Pressure Air Temp Water Temp Dewpoint Dewpoint Depression Visibility Wind Speed Wind Dir Waves Ship Positions

Bahia Uno

Last reported at 2018-Apr-20 14:40 UTC. Time now 2018-Apr-20 16:45 UTC.
Position N 41°21' E 002°10'.

Length 70 m; draft 6.5 m.

Type: Ship. MMSI: 224127820.

Date/timePositionNaut miles runAvg speedWind from/ knotsBaromVisibWave heightAir tempDewpointWater temp
2018-Apr-20 14:40N 41°21' E 002°10'0 0.2
2018-Apr-20 14:30N 41°21' E 002°10'0 0.0
2018-Apr-20 14:00N 41°21' E 002°10'0 0.0
2018-Apr-20 13:30N 41°21' E 002°10'0 0.0
2018-Apr-20 13:00N 41°21' E 002°10'0 0.0
2018-Apr-20 12:17N 41°21' E 002°10'0 0.1
2018-Apr-20 11:59N 41°21' E 002°10'0 0.0
2018-Apr-20 11:30N 41°21' E 002°10'0 0.3
2018-Apr-20 11:00N 41°21' E 002°10'0 0.8
2018-Apr-20 10:28N 41°21' E 002°10'0 0.0
2018-Apr-20 09:52N 41°21' E 002°10'  
2018-Apr-16 13:24N 41°21' E 002°10'0 0.0
2018-Apr-16 13:00N 41°21' E 002°10'0 0.0
2018-Apr-16 12:27N 41°21' E 002°10'0 0.0
2018-Apr-16 11:59N 41°21' E 002°10'0 0.0
2018-Apr-16 11:28N 41°21' E 002°10'0 0.0
2018-Apr-16 11:00N 41°21' E 002°10'0 0.0
2018-Apr-16 10:30N 41°21' E 002°10'0 0.0
2018-Apr-16 10:00N 41°21' E 002°10'0 0.0
2018-Apr-16 09:30N 41°21' E 002°10'0 0.0
2018-Apr-16 09:00N 41°21' E 002°10'0 0.0
2018-Apr-16 08:28N 41°21' E 002°10'0 0.0
2018-Apr-16 08:00N 41°21' E 002°10'0 0.0
2018-Apr-16 07:30N 41°21' E 002°10'0 0.0
2018-Apr-16 07:00N 41°21' E 002°10'0 0.0
2018-Apr-16 06:30N 41°21' E 002°10'0 0.0
2018-Apr-16 06:00N 41°21' E 002°10'0 0.0
2018-Apr-16 05:30N 41°21' E 002°10'0 0.0
2018-Apr-16 05:00N 41°21' E 002°10'0 0.0
2018-Apr-16 04:30N 41°21' E 002°10'0 0.0
2018-Apr-16 04:01N 41°21' E 002°10'0 0.0
2018-Apr-16 03:30N 41°21' E 002°10'0 0.0
2018-Apr-16 03:00N 41°21' E 002°10'0 0.0
2018-Apr-16 02:30N 41°21' E 002°10'0 0.0
2018-Apr-16 02:01N 41°21' E 002°10'0 0.0
2018-Apr-16 01:31N 41°21' E 002°10'0 0.0
2018-Apr-16 01:00N 41°21' E 002°10'0 0.0
2018-Apr-16 00:30N 41°21' E 002°10'0 0.0
2018-Apr-16 00:00N 41°21' E 002°10'0 0.0
2018-Apr-15 23:30N 41°21' E 002°10'0 0.0
2018-Apr-15 23:00N 41°21' E 002°10'0 0.0
2018-Apr-15 22:30N 41°21' E 002°10'0 0.0
2018-Apr-15 22:00N 41°21' E 002°10'0 0.0
2018-Apr-15 21:30N 41°21' E 002°10'0 0.0
2018-Apr-15 21:00N 41°21' E 002°10'0 0.0
2018-Apr-15 20:31N 41°21' E 002°10'0 0.0
2018-Apr-15 20:00N 41°21' E 002°10'0 0.0
2018-Apr-15 19:31N 41°21' E 002°10'0 0.0
2018-Apr-15 19:01N 41°21' E 002°10'0 0.0
2018-Apr-15 18:30N 41°21' E 002°10'0 0.0
2018-Apr-15 18:01N 41°21' E 002°10'0 0.0
2018-Apr-15 17:30N 41°21' E 002°10'0 0.0
2018-Apr-15 17:00N 41°21' E 002°10'0 0.0
2018-Apr-15 16:30N 41°21' E 002°10'0 0.0
2018-Apr-15 16:00N 41°21' E 002°10'0 0.0
2018-Apr-15 15:29N 41°21' E 002°10'0 0.0
2018-Apr-15 14:55N 41°21' E 002°10'0 0.0
2018-Apr-15 14:30N 41°21' E 002°10'0 0.0
2018-Apr-15 14:01N 41°21' E 002°10'0 0.0
2018-Apr-15 13:30N 41°21' E 002°10'0 0.0
2018-Apr-15 12:59N 41°21' E 002°10'0 0.0
2018-Apr-15 12:27N 41°21' E 002°10'0 0.0
2018-Apr-15 12:00N 41°21' E 002°10'0 0.0
2018-Apr-15 11:30N 41°21' E 002°10'0 0.0
2018-Apr-15 11:00N 41°21' E 002°10'0 0.0
2018-Apr-15 10:30N 41°21' E 002°10'0 0.0
2018-Apr-15 10:00N 41°21' E 002°10'0 0.0
2018-Apr-15 09:30N 41°21' E 002°10'0 0.0
2018-Apr-15 09:00N 41°21' E 002°10'0 0.0
2018-Apr-15 08:30N 41°21' E 002°10'0 0.0
2018-Apr-15 08:00N 41°21' E 002°10'0 0.0
2018-Apr-15 07:30N 41°21' E 002°10'0 0.0
2018-Apr-15 07:00N 41°21' E 002°10'0 0.0
2018-Apr-15 06:31N 41°21' E 002°10'0 0.0
2018-Apr-15 06:00N 41°21' E 002°10'10 2.5
2018-Apr-15 01:57N 41°11' E 002°10'2 4.6
2018-Apr-15 01:31N 41°09' E 002°08'4 4.6
2018-Apr-15 00:37N 41°05' E 002°05'1 4.7
2018-Apr-15 00:21N 41°04' E 002°05'2 4.6
2018-Apr-14 23:59N 41°03' E 002°04'2 4.5
2018-Apr-14 23:29N 41°01' E 002°02'200 5.5
2018-Apr-13 11:22N 38°06' W 000°04'2 5.6
2018-Apr-13 10:59N 38°04' W 000°05'20 5.7
2018-Apr-13 07:27N 37°47' W 000°19'3 6.2
2018-Apr-13 07:00N 37°44' W 000°21'3 6.3
2018-Apr-13 06:30N 37°42' W 000°23'4 6.0
2018-Apr-13 05:54N 37°39' W 000°26'2 5.9
2018-Apr-13 05:30N 37°37' W 000°27'3 5.7
2018-Apr-13 05:00N 37°35' W 000°30'3 5.8
2018-Apr-13 04:30N 37°32' W 000°32'3 5.9
2018-Apr-13 04:00N 37°30' W 000°35'5 6.6
2018-Apr-13 03:19N 37°27' W 000°39'3 6.7
2018-Apr-13 02:53N 37°26' W 000°42'2 6.3
2018-Apr-13 02:30N 37°24' W 000°44'3 6.7
2018-Apr-13 02:00N 37°22' W 000°47'5 6.6
2018-Apr-13 01:20N 37°19' W 000°52'  

Dump ship's entire track history